Time,TemperatureF,DewpointF,PressureIn,WindDirection,WindDirectionDegrees,WindSpeedMPH,WindSpeedGustMPH,Humidity,HourlyPrecipIn,Conditions,Clouds,dailyrainin,SolarRadiationWatts/m^2,SoftwareType,DateUTC
2013-03-24 00:03:00,72.0,66.2,29.86,WSW,239,0.0,0.0,82,0.00,,---,0.00,0.00,VWS V14.01,2013-03-24 04:03:00,
2013-03-24 00:33:00,71.2,66.1,29.85,WSW,239,0.0,0.0,84,0.00,,---,0.00,0.00,VWS V14.01,2013-03-24 04:33:00,
2013-03-24 01:03:00,70.5,66.4,29.85,WSW,239,0.0,0.0,87,0.00,,---,0.00,0.00,VWS V14.01,2013-03-24 05:03:00,
2013-03-24 01:33:00,70.6,66.9,29.84,WSW,239,0.0,0.0,88,0.00,,---,0.00,0.00,VWS V14.01,2013-03-24 05:33:00,
2013-03-24 02:03:00,70.7,66.7,29.82,WSW,239,0.0,0.0,87,0.00,,---,0.00,0.00,VWS V14.01,2013-03-24 06:03:00,
2013-03-24 02:33:00,70.3,66.2,29.81,WSW,239,0.0,0.0,87,0.00,,---,0.00,0.00,VWS V14.01,2013-03-24 06:33:00,
2013-03-24 03:03:00,69.7,66.0,29.79,WSW,239,0.0,0.0,88,0.00,,---,0.00,0.00,VWS V14.01,2013-03-24 07:03:00,
2013-03-24 03:33:00,69.3,65.9,29.78,WSW,239,0.0,0.0,89,0.00,,---,0.00,0.00,VWS V14.01,2013-03-24 07:33:00,
2013-03-24 04:03:00,68.9,66.2,29.77,WSW,239,0.0,0.0,91,0.00,,---,0.00,0.00,VWS V14.01,2013-03-24 08:03:00,
2013-03-24 04:33:00,68.7,66.0,29.76,SW,216,0.0,3.0,91,0.00,,---,0.00,0.00,VWS V14.01,2013-03-24 08:33:00,
2013-03-24 05:03:00,69.0,66.3,29.74,SSW,210,0.0,3.0,91,0.00,,---,0.00,0.00,VWS V14.01,2013-03-24 09:03:00,
2013-03-24 05:33:00,70.2,66.8,29.72,SSE,151,0.0,7.0,89,0.00,,---,0.00,0.00,VWS V14.01,2013-03-24 09:33:00,
2013-03-24 06:03:00,71.0,67.3,29.72,SSW,199,2.0,7.0,88,0.00,,---,0.00,0.00,VWS V14.01,2013-03-24 10:03:00,
2013-03-24 06:33:00,71.1,67.4,29.73,South,183,0.0,10.0,88,0.00,,---,0.00,0.00,VWS V14.01,2013-03-24 10:33:00,
2013-03-24 07:03:00,71.2,68.8,29.72,South,178,0.0,6.0,92,0.00,,---,0.00,0.00,VWS V14.01,2013-03-24 11:03:00,
2013-03-24 07:33:00,71.8,70.0,29.72,SSE,162,2.0,11.0,94,0.00,,---,0.00,12.00,VWS V14.01,2013-03-24 11:33:00,
2013-03-24 08:03:00,72.3,70.8,29.71,SSW,207,0.0,13.0,95,0.00,,---,0.00,26.00,VWS V14.01,2013-03-24 12:03:00,
2013-03-24 08:33:00,73.2,71.4,29.70,SSW,200,3.0,17.0,94,0.00,,---,0.00,141.00,VWS V14.01,2013-03-24 12:33:00,
2013-03-24 09:03:00,74.9,72.1,29.70,SSW,196,10.0,14.0,91,0.00,,---,0.00,253.00,VWS V14.01,2013-03-24 13:03:00,
2013-03-24 09:33:00,77.3,72.8,29.71,SW,223,6.0,18.0,86,0.00,,---,0.00,144.00,VWS V14.01,2013-03-24 13:33:00,
2013-03-24 10:03:00,79.2,73.2,29.71,SSW,200,7.0,20.0,82,0.00,,---,0.00,192.00,VWS V14.01,2013-03-24 14:03:00,
2013-03-24 10:33:00,79.2,72.5,29.72,SW,232,12.0,23.0,80,0.00,,---,0.00,306.00,VWS V14.01,2013-03-24 14:33:00,
2013-03-24 11:03:00,80.0,72.9,29.73,SW,231,12.0,23.0,79,0.00,,---,0.00,199.00,VWS V14.01,2013-03-24 15:03:00,
2013-03-24 11:33:00,79.9,72.4,29.75,WSW,238,2.0,22.0,78,0.00,,---,0.00,257.00,VWS V14.01,2013-03-24 15:33:00,
2013-03-24 12:03:00,81.6,72.9,29.75,WSW,247,2.0,17.0,75,0.00,,---,0.00,239.00,VWS V14.01,2013-03-24 16:03:00,
2013-03-24 12:33:00,83.8,73.0,29.74,SW,230,10.0,18.0,70,0.00,,---,0.00,290.00,VWS V14.01,2013-03-24 16:33:00,
2013-03-24 13:03:00,83.0,72.6,29.74,SW,232,0.0,19.0,71,0.00,,---,0.00,125.00,VWS V14.01,2013-03-24 17:03:00,
2013-03-24 13:33:00,87.2,72.6,29.70,SW,236,4.0,19.0,62,0.00,,---,0.00,976.00,VWS V14.01,2013-03-24 17:33:00,
2013-03-24 14:03:00,88.4,70.7,29.69,SW,217,4.0,29.0,56,0.00,,---,0.00,904.00,VWS V14.01,2013-03-24 18:03:00,
2013-03-24 14:33:00,89.0,71.3,29.66,SW,231,11.0,21.0,56,0.00,,---,0.00,819.00,VWS V14.01,2013-03-24 18:33:00,
2013-03-24 15:03:00,89.9,70.5,29.64,SW,224,5.0,22.0,53,0.00,,---,0.00,756.00,VWS V14.01,2013-03-24 19:03:00,